Delanco Township, New Jersey
Current Conditions -  °F | °C
As of 10:54 AM on Saturday 25 Oct 2014 (Local Time) from KPNE Reporting Station
Clear Clear  
Wind Chill: 63°   Ceiling: Unl
Heat Index: 63°   Visibility: 10mi
Dew Point: 40°   Wind: 10mph
Humidity: 43%   Direction: 290°WNW
Pressure: 29.9"   Gusts: NA
Location:  40.0192°N, 74.9489°W
Report Text: KPNE 251454Z 29009KT 10SM CLR 17/04 A2990 RMK AO2 SLP125 T01720044 58008
Loading
Personal Weather Stations






























Interactive Weather Map
Tropical Storm Tracking
New forecast layout! Learn more

10-Day Weather Forecast

Advertisements
Track Severe Weather on mobile